createdAt,value
2024-04-10T00:00:22.278Z,12.53
2024-04-10T00:02:49.392Z,7.07
2024-04-10T00:05:18.977Z,7.57
2024-04-10T00:07:46.218Z,8.53
2024-04-10T00:10:15.152Z,8.57
2024-04-10T00:12:42.193Z,9.97
2024-04-10T00:15:09.061Z,10.27
2024-04-10T00:17:36.165Z,16.03
2024-04-10T00:20:03.323Z,9.23
2024-04-10T00:22:30.562Z,9.43
2024-04-10T00:24:57.403Z,5.90
2024-04-10T00:27:24.211Z,8.30
2024-04-10T00:29:54.020Z,6.53
2024-04-10T00:32:20.965Z,14.03
2024-04-10T00:34:47.912Z,12.97
2024-04-10T00:37:14.731Z,15.87
2024-04-10T00:39:41.591Z,14.83
2024-04-10T00:42:08.541Z,9.03
2024-04-10T00:44:46.863Z,12.77
2024-04-10T00:47:13.779Z,10.00
2024-04-10T00:49:40.785Z,10.10
2024-04-10T00:52:08.695Z,14.27
2024-04-10T00:54:36.775Z,18.63
2024-04-10T00:57:04.489Z,13.33
2024-04-10T00:59:32.008Z,15.63
2024-04-10T01:02:00.209Z,8.70
2024-04-10T01:04:27.593Z,16.80
2024-04-10T01:06:54.431Z,15.87
2024-04-10T01:09:21.525Z,11.60
2024-04-10T01:11:48.883Z,7.67
2024-04-10T01:14:17.456Z,10.13
2024-04-10T01:16:45.164Z,14.80
2024-04-10T01:19:12.007Z,9.43
2024-04-10T01:21:38.839Z,9.93
2024-04-10T01:24:06.159Z,11.33
2024-04-10T01:26:33.288Z,13.33
2024-04-10T01:29:00.169Z,12.30
2024-04-10T01:31:28.546Z,7.23
2024-04-10T01:33:55.585Z,12.23
2024-04-10T01:36:23.162Z,14.23
2024-04-10T01:38:51.298Z,12.47
2024-04-10T01:41:18.304Z,12.60
2024-04-10T01:43:45.168Z,16.43
2024-04-10T01:46:12.582Z,9.27
2024-04-10T01:48:39.581Z,12.23
2024-04-10T01:51:06.534Z,11.03
2024-04-10T01:53:33.599Z,6.90
2024-04-10T01:56:00.614Z,14.00
2024-04-10T01:58:27.533Z,13.70
2024-04-10T02:00:55.649Z,16.83
2024-04-10T02:03:22.748Z,8.50
2024-04-10T02:05:50.997Z,8.63
2024-04-10T02:08:17.877Z,6.93
2024-04-10T02:10:44.783Z,9.70
2024-04-10T02:13:11.609Z,16.10
2024-04-10T02:15:38.439Z,12.40
2024-04-10T02:18:05.995Z,12.50
2024-04-10T02:20:32.935Z,10.60
2024-04-10T02:22:59.880Z,12.33
2024-04-10T02:25:26.710Z,12.77
2024-04-10T02:27:53.586Z,10.50
2024-04-10T02:30:20.403Z,10.73
2024-04-10T02:32:51.120Z,12.20
2024-04-10T02:35:18.654Z,6.50
2024-04-10T02:37:46.169Z,13.97
2024-04-10T02:40:13.102Z,9.93
2024-04-10T02:42:42.110Z,10.80
2024-04-10T02:45:09.088Z,14.77
2024-04-10T02:47:36.007Z,13.47
2024-04-10T02:50:05.732Z,11.43
2024-04-10T02:52:32.608Z,13.27
2024-04-10T02:54:59.447Z,16.03
2024-04-10T02:57:26.496Z,13.13
2024-04-10T02:59:53.569Z,12.03
2024-04-10T03:02:20.438Z,12.83
2024-04-10T03:04:47.410Z,7.40
2024-04-10T03:07:16.486Z,10.67
2024-04-10T03:09:44.064Z,14.73
2024-04-10T03:12:13.015Z,8.70
2024-04-10T03:14:43.894Z,7.80
2024-04-10T03:17:12.784Z,13.50
2024-04-10T03:19:39.878Z,8.50
2024-04-10T03:22:06.718Z,15.00
2024-04-10T03:24:33.752Z,18.50
2024-04-10T03:27:00.976Z,7.50
2024-04-10T03:29:28.181Z,14.20
2024-04-10T03:31:55.778Z,6.50
2024-04-10T03:34:22.671Z,9.07
2024-04-10T03:36:49.951Z,13.10
2024-04-10T03:39:17.296Z,9.60
2024-04-10T03:41:44.151Z,11.77
2024-04-10T03:44:11.000Z,13.90
2024-04-10T03:46:37.957Z,13.60
2024-04-10T03:49:04.802Z,11.37
2024-04-10T03:51:31.862Z,13.30
2024-04-10T03:53:58.676Z,19.03
2024-04-10T03:56:25.547Z,14.80
2024-04-10T03:58:52.746Z,8.47
2024-04-10T04:01:20.757Z,15.33
2024-04-10T04:03:47.794Z,8.90
2024-04-10T04:06:14.670Z,10.87
2024-04-10T04:08:42.461Z,12.37
2024-04-10T04:11:09.396Z,20.27
2024-04-10T04:13:38.676Z,10.40
2024-04-10T04:16:07.301Z,10.00
2024-04-10T04:18:36.021Z,13.47
2024-04-10T04:21:02.959Z,10.47
2024-04-10T04:23:29.862Z,15.77
2024-04-10T04:25:56.840Z,20.70
2024-04-10T04:28:23.703Z,15.43
2024-04-10T04:30:51.062Z,14.63
2024-04-10T04:33:19.624Z,18.23
2024-04-10T04:35:46.962Z,19.73
2024-04-10T04:38:13.883Z,17.00
2024-04-10T04:40:40.776Z,18.37
2024-04-10T04:43:10.754Z,11.60
2024-04-10T04:45:41.818Z,8.50
2024-04-10T04:48:10.018Z,13.30
2024-04-10T04:50:43.925Z,9.93
2024-04-10T04:53:11.831Z,16.70
2024-04-10T04:55:39.857Z,13.40
2024-04-10T04:58:07.013Z,18.83
2024-04-10T05:00:34.305Z,13.20
2024-04-10T05:03:02.141Z,9.40
2024-04-10T05:05:29.136Z,19.03
2024-04-10T05:07:56.019Z,15.23
2024-04-10T05:10:22.921Z,15.80
2024-04-10T05:12:51.413Z,12.03
2024-04-10T05:15:18.262Z,16.63
2024-04-10T05:17:46.599Z,16.33
2024-04-10T05:20:17.747Z,14.60
2024-04-10T05:22:46.070Z,13.60
2024-04-10T05:25:13.078Z,14.80
2024-04-10T05:27:40.083Z,17.03
2024-04-10T05:30:08.808Z,15.57
2024-04-10T05:32:41.277Z,11.27
2024-04-10T05:35:11.254Z,14.87
2024-04-10T05:37:38.409Z,20.10
2024-04-10T05:40:18.025Z,15.00
2024-04-10T05:42:46.944Z,14.93
2024-04-10T05:45:16.256Z,13.80
2024-04-10T05:47:49.221Z,15.63
2024-04-10T05:50:16.599Z,13.87
2024-04-10T05:52:44.247Z,11.80
2024-04-10T05:55:11.967Z,18.30
2024-04-10T05:57:39.297Z,22.87
2024-04-10T06:00:08.478Z,14.47
2024-04-10T06:02:41.578Z,13.37
2024-04-10T06:05:09.879Z,10.87
2024-04-10T06:07:37.570Z,16.87
2024-04-10T06:10:06.175Z,17.23
2024-04-10T06:12:33.337Z,13.23
2024-04-10T06:15:00.262Z,18.33
2024-04-10T06:17:28.067Z,10.90
2024-04-10T06:19:59.443Z,17.87
2024-04-10T06:22:26.432Z,11.13
2024-04-10T06:24:53.535Z,12.90
2024-04-10T06:27:21.685Z,15.90
2024-04-10T06:29:49.190Z,9.60
2024-04-10T06:32:17.437Z,11.87
2024-04-10T06:34:44.415Z,12.53
2024-04-10T06:37:11.324Z,10.70
2024-04-10T06:39:38.234Z,11.90
2024-04-10T06:42:05.419Z,10.33
2024-04-10T06:44:32.889Z,17.17
2024-04-10T06:47:00.636Z,15.50
2024-04-10T06:49:30.882Z,10.87
2024-04-10T06:51:57.957Z,19.07
2024-04-10T06:54:25.263Z,9.80
2024-04-10T06:56:52.147Z,20.77
2024-04-10T06:59:20.212Z,13.40
2024-04-10T07:01:47.673Z,16.30
2024-04-10T07:04:14.684Z,16.30
2024-04-10T07:06:41.635Z,15.73
2024-04-10T07:09:10.973Z,12.77
2024-04-10T07:11:39.365Z,15.27
2024-04-10T07:14:06.622Z,11.83
2024-04-10T07:16:33.690Z,16.47
2024-04-10T07:19:00.905Z,10.40
2024-04-10T07:21:28.128Z,19.83
2024-04-10T07:23:59.429Z,17.10
2024-04-10T07:26:28.411Z,13.33
2024-04-10T07:28:57.690Z,13.10
2024-04-10T07:31:37.608Z,15.00
2024-04-10T07:34:07.244Z,9.03
2024-04-10T07:36:38.335Z,12.93
2024-04-10T07:39:08.586Z,14.00
2024-04-10T07:41:37.470Z,18.30
2024-04-10T07:44:07.009Z,15.60
2024-04-10T07:46:33.976Z,14.17
2024-04-10T07:49:01.064Z,17.73
2024-04-10T07:51:30.964Z,18.90
2024-04-10T07:53:57.898Z,12.43
2024-04-10T07:56:24.944Z,18.00
2024-04-10T07:58:52.102Z,15.63
2024-04-10T08:01:20.334Z,15.90
2024-04-10T08:03:49.548Z,13.20
2024-04-10T08:06:16.520Z,12.30
2024-04-10T08:08:44.161Z,15.07
2024-04-10T08:11:20.226Z,14.50
2024-04-10T08:13:47.460Z,15.90
2024-04-10T08:16:14.540Z,15.50
2024-04-10T08:18:44.871Z,18.63
2024-04-10T08:21:14.727Z,17.93
2024-04-10T08:23:43.344Z,17.97
2024-04-10T08:26:18.794Z,15.57
2024-04-10T08:28:54.145Z,16.53
2024-04-10T08:31:23.491Z,9.50
2024-04-10T08:33:51.326Z,21.70
2024-04-10T08:36:18.594Z,12.20
2024-04-10T08:38:46.420Z,10.80
2024-04-10T08:41:17.805Z,12.47
2024-04-10T08:43:46.334Z,14.57
2024-04-10T08:46:14.506Z,12.53
2024-04-10T08:48:43.429Z,13.10
2024-04-10T08:51:15.095Z,14.70
2024-04-10T08:53:44.584Z,16.70
2024-04-10T08:56:12.967Z,10.03
2024-04-10T08:58:41.101Z,12.50
2024-04-10T09:01:08.180Z,11.30
2024-04-10T09:03:36.411Z,14.60
2024-04-10T09:06:10.120Z,13.73
2024-04-10T09:08:38.691Z,8.20
2024-04-10T09:11:05.948Z,14.27
2024-04-10T09:13:32.892Z,9.63
2024-04-10T09:16:00.809Z,13.13
2024-04-10T09:18:28.528Z,15.63
2024-04-10T09:21:11.883Z,16.20
2024-04-10T09:23:39.374Z,16.17
2024-04-10T09:26:07.397Z,9.30
2024-04-10T09:28:35.061Z,14.43
2024-04-10T09:31:02.619Z,15.83
2024-04-10T09:33:35.589Z,12.27
2024-04-10T09:36:08.323Z,23.90
2024-04-10T09:38:37.579Z,13.40
2024-04-10T09:41:05.266Z,12.00
2024-04-10T09:43:33.290Z,13.73
2024-04-10T09:46:04.258Z,14.93
2024-04-10T09:48:35.681Z,15.93
2024-04-10T09:51:06.850Z,9.03
2024-04-10T09:53:35.545Z,11.30
2024-04-10T09:56:06.828Z,13.43
2024-04-10T09:58:35.270Z,11.67
2024-04-10T10:01:04.083Z,11.10
2024-04-10T10:03:31.974Z,13.23
2024-04-10T10:06:09.243Z,9.97
2024-04-10T10:08:36.938Z,9.17
2024-04-10T10:11:09.421Z,10.70
2024-04-10T10:13:44.957Z,13.10
2024-04-10T10:16:14.309Z,15.10
2024-04-10T10:18:41.674Z,11.00
2024-04-10T10:21:10.996Z,10.53
2024-04-10T10:23:39.773Z,14.20
2024-04-10T10:26:11.578Z,9.90
2024-04-10T10:28:38.698Z,10.77
2024-04-10T10:31:12.379Z,10.70
2024-04-10T10:33:39.840Z,14.80
2024-04-10T10:36:07.431Z,11.90
2024-04-10T10:38:34.677Z,18.40
2024-04-10T10:41:18.260Z,21.47
2024-04-10T10:43:46.446Z,7.67
2024-04-10T10:46:13.806Z,11.00
2024-04-10T10:48:43.305Z,7.73
2024-04-10T10:51:10.460Z,15.23
2024-04-10T10:53:37.433Z,8.63
2024-04-10T10:56:05.045Z,9.30
2024-04-10T10:58:31.929Z,10.97
2024-04-10T11:00:58.904Z,14.00
2024-04-10T11:03:30.226Z,12.23
2024-04-10T11:06:08.821Z,10.60
2024-04-10T11:08:36.004Z,17.37
2024-04-10T11:11:02.999Z,10.63
2024-04-10T11:13:29.833Z,10.57
2024-04-10T11:16:01.150Z,12.53
2024-04-10T11:18:28.356Z,10.03
2024-04-10T11:20:55.560Z,6.90
2024-04-10T11:23:25.275Z,12.57
2024-04-10T11:25:53.052Z,10.33
2024-04-10T11:28:19.884Z,11.10
2024-04-10T11:30:46.756Z,10.27
2024-04-10T11:33:13.975Z,8.83
2024-04-10T11:35:41.671Z,10.67
2024-04-10T11:38:09.004Z,8.47
2024-04-10T11:40:36.043Z,7.70
2024-04-10T11:43:03.416Z,12.70
2024-04-10T11:45:30.513Z,11.90
2024-04-10T11:47:57.620Z,6.33
2024-04-10T11:50:24.760Z,10.13
2024-04-10T11:52:51.696Z,5.97
2024-04-10T11:55:18.568Z,10.40
2024-04-10T11:57:46.595Z,8.47
2024-04-10T12:00:15.598Z,4.90
2024-04-10T12:02:44.116Z,5.43
2024-04-10T12:05:11.353Z,9.17
2024-04-10T12:07:39.265Z,6.90
2024-04-10T12:10:07.218Z,6.50
2024-04-10T12:12:34.610Z,5.50
2024-04-10T12:15:02.183Z,4.67
2024-04-10T12:17:31.070Z,11.43
2024-04-10T12:19:59.015Z,6.17
2024-04-10T12:22:26.140Z,6.07
2024-04-10T12:24:53.206Z,11.93
2024-04-10T12:27:20.090Z,7.57
2024-04-10T12:29:47.346Z,6.23
2024-04-10T12:32:14.437Z,8.40
2024-04-10T12:34:41.844Z,6.93
2024-04-10T12:37:27.999Z,5.07
2024-04-10T12:39:54.832Z,5.80
2024-04-10T12:42:21.765Z,5.83
2024-04-10T12:44:48.757Z,4.13
2024-04-10T12:47:15.685Z,5.80
2024-04-10T12:49:43.711Z,4.53
2024-04-10T12:52:10.726Z,9.23
2024-04-10T12:54:38.564Z,5.43
2024-04-10T12:57:06.174Z,4.07
2024-04-10T12:59:33.178Z,7.23
2024-04-10T13:02:00.196Z,6.90
2024-04-10T13:04:27.140Z,5.57
2024-04-10T13:06:54.035Z,3.30
2024-04-10T13:09:21.878Z,7.27
2024-04-10T13:11:48.927Z,3.87
2024-04-10T13:14:17.070Z,6.80
2024-04-10T13:16:44.154Z,5.57
2024-04-10T13:19:11.248Z,6.63
2024-04-10T13:21:39.429Z,4.67
2024-04-10T13:24:06.755Z,6.10
2024-04-10T13:26:34.372Z,4.63
2024-04-10T13:29:01.468Z,4.50
2024-04-10T13:31:28.488Z,5.13
2024-04-10T13:33:57.231Z,6.40
2024-04-10T13:36:24.384Z,7.00
2024-04-10T13:38:52.443Z,6.60
2024-04-10T13:41:21.247Z,7.27
2024-04-10T13:43:53.310Z,7.30
2024-04-10T13:46:21.230Z,5.70
2024-04-10T13:48:48.589Z,7.33
2024-04-10T13:51:26.798Z,8.00
2024-04-10T13:53:55.126Z,6.90
2024-04-10T13:56:23.066Z,6.80
2024-04-10T13:58:50.926Z,7.30
2024-04-10T14:01:20.219Z,8.90
2024-04-10T14:03:53.167Z,9.10
2024-04-10T14:06:24.567Z,8.30
2024-04-10T14:08:53.318Z,5.27
2024-04-10T14:11:20.721Z,8.30
2024-04-10T14:13:47.769Z,4.60
2024-04-10T14:16:15.168Z,5.17
2024-04-10T14:18:42.583Z,8.87
2024-04-10T14:21:14.435Z,3.57
2024-04-10T14:23:43.105Z,9.53
2024-04-10T14:26:15.243Z,4.53
2024-04-10T14:28:42.547Z,6.47
2024-04-10T14:31:13.045Z,3.20
2024-04-10T14:33:44.827Z,3.80
2024-04-10T14:36:12.566Z,4.80
2024-04-10T14:38:40.236Z,3.07
2024-04-10T14:41:08.511Z,5.00
2024-04-10T14:43:37.585Z,4.80
2024-04-10T14:46:08.927Z,5.80
2024-04-10T14:48:38.213Z,2.83
2024-04-10T14:51:06.635Z,2.73
2024-04-10T14:53:33.727Z,8.23
2024-04-10T14:56:10.442Z,4.37
2024-04-10T14:58:41.392Z,4.77
2024-04-10T15:01:17.773Z,8.03
2024-04-10T15:03:46.021Z,5.30
2024-04-10T15:06:13.711Z,5.53
2024-04-10T15:08:41.018Z,2.30
2024-04-10T15:11:09.062Z,5.27
2024-04-10T15:13:36.830Z,7.80
2024-04-10T15:16:03.895Z,3.50
2024-04-10T15:18:31.046Z,3.63
2024-04-10T15:21:01.982Z,6.50
2024-04-10T15:23:28.958Z,4.90
2024-04-10T15:25:59.487Z,3.63
2024-04-10T15:28:31.308Z,4.30
2024-04-10T15:31:05.832Z,5.87
2024-04-10T15:33:34.803Z,5.03
2024-04-10T15:36:12.805Z,6.53
2024-04-10T15:38:45.453Z,6.20
2024-04-10T15:41:13.227Z,4.30
2024-04-10T15:43:40.445Z,3.70
2024-04-10T15:46:12.513Z,7.80
2024-04-10T15:48:39.900Z,7.53
2024-04-10T15:51:13.081Z,4.17
2024-04-10T15:53:40.682Z,5.37
2024-04-10T15:56:11.900Z,5.63
2024-04-10T15:58:40.258Z,8.73
2024-04-10T16:01:08.715Z,2.90
2024-04-10T16:03:41.805Z,3.80
2024-04-10T16:06:11.506Z,3.20
2024-04-10T16:08:38.821Z,6.00
2024-04-10T16:11:11.192Z,5.23
2024-04-10T16:13:38.025Z,4.97
2024-04-10T16:16:06.429Z,3.17
2024-04-10T16:18:34.071Z,5.67
2024-04-10T16:21:06.805Z,3.23
2024-04-10T16:23:34.325Z,4.47
2024-04-10T16:26:09.016Z,5.57
2024-04-10T16:28:37.255Z,5.17
2024-04-10T16:31:05.023Z,4.80
2024-04-10T16:33:32.117Z,3.93
2024-04-10T16:36:10.620Z,2.73
2024-04-10T16:38:41.517Z,5.20
2024-04-10T16:41:08.456Z,6.33
2024-04-10T16:43:37.996Z,6.07
2024-04-10T16:46:07.227Z,6.73
2024-04-10T16:48:34.517Z,4.13
2024-04-10T16:51:07.174Z,3.90
2024-04-10T16:53:36.205Z,7.90
2024-04-10T16:57:50.301Z,8.73
2024-04-10T17:00:17.354Z,5.33
2024-04-10T17:02:46.558Z,6.83
2024-04-10T17:05:13.635Z,8.43
2024-04-10T17:07:40.474Z,4.00
2024-04-10T17:10:07.561Z,3.20
2024-04-10T17:12:35.208Z,8.43
2024-04-10T17:15:02.574Z,6.87
2024-04-10T17:17:49.637Z,9.30
2024-04-10T17:20:43.490Z,7.40
2024-04-10T17:23:10.384Z,10.30
2024-04-10T17:25:39.591Z,4.10
2024-04-10T17:28:06.713Z,8.20
2024-04-10T17:30:33.575Z,7.73
2024-04-10T17:33:01.121Z,4.07
2024-04-10T17:35:28.078Z,5.20
2024-04-10T17:37:56.118Z,6.30
2024-04-10T17:40:22.961Z,3.40
2024-04-10T17:42:49.799Z,6.10
2024-04-10T17:45:16.964Z,6.30
2024-04-10T17:47:44.151Z,6.23
2024-04-10T17:50:11.138Z,5.53
2024-04-10T17:52:38.492Z,5.80
2024-04-10T17:55:06.156Z,3.87
2024-04-10T17:57:33.761Z,6.20
2024-04-10T18:00:00.878Z,3.60
2024-04-10T18:02:31.275Z,6.63
2024-04-10T18:04:58.303Z,5.80
2024-04-10T18:07:25.171Z,4.60
2024-04-10T18:09:52.032Z,6.13
2024-04-10T18:12:21.170Z,2.70
2024-04-10T18:14:49.112Z,4.50
2024-04-10T18:17:16.200Z,7.67
2024-04-10T18:19:43.493Z,3.80
2024-04-10T18:22:10.532Z,5.53
2024-04-10T18:24:37.360Z,5.70
2024-04-10T18:27:04.608Z,5.90
2024-04-10T18:29:32.025Z,6.70
2024-04-10T18:31:58.969Z,8.80
2024-04-10T18:34:26.667Z,4.40
2024-04-10T18:36:53.847Z,6.17
2024-04-10T18:39:20.712Z,7.90
2024-04-10T18:41:47.605Z,4.93
2024-04-10T18:44:16.531Z,3.50
2024-04-10T18:46:43.639Z,3.43
2024-04-10T18:49:10.818Z,5.13
2024-04-10T18:51:38.322Z,5.43
2024-04-10T18:54:06.729Z,4.33
2024-04-10T18:56:34.626Z,4.43
2024-04-10T18:59:02.102Z,4.90
2024-04-10T19:01:28.958Z,11.57
2024-04-10T19:03:56.190Z,6.10
2024-04-10T19:06:25.001Z,4.23
2024-04-10T19:08:51.945Z,6.87
2024-04-10T19:11:19.107Z,6.40
2024-04-10T19:13:46.113Z,4.40
2024-04-10T19:16:13.573Z,4.30
2024-04-10T19:18:44.896Z,4.17
2024-04-10T19:21:16.541Z,13.40
2024-04-10T19:23:43.462Z,5.27
2024-04-10T19:26:12.765Z,3.63
2024-04-10T19:28:39.667Z,4.23
2024-04-10T19:31:06.842Z,2.57
2024-04-10T19:33:38.292Z,4.60
2024-04-10T19:36:06.846Z,8.70
2024-04-10T19:38:34.303Z,4.47
2024-04-10T19:41:02.911Z,5.03
2024-04-10T19:43:30.148Z,9.23
2024-04-10T19:45:57.229Z,7.87
2024-04-10T19:48:25.038Z,7.00
2024-04-10T19:51:06.828Z,6.40
2024-04-10T19:53:34.942Z,4.43
2024-04-10T19:56:11.275Z,5.73
2024-04-10T19:58:39.861Z,6.00
2024-04-10T20:01:12.133Z,4.53
2024-04-10T20:03:43.022Z,7.13
2024-04-10T20:06:11.094Z,4.63
2024-04-10T20:08:42.065Z,4.83
2024-04-10T20:11:10.539Z,4.10
2024-04-10T20:13:38.043Z,6.43
2024-04-10T20:16:08.125Z,4.87
2024-04-10T20:18:36.530Z,9.13
2024-04-10T20:21:07.438Z,6.47
2024-04-10T20:23:35.821Z,4.90
2024-04-10T20:26:04.481Z,8.20
2024-04-10T20:28:32.944Z,9.23
2024-04-10T20:31:04.898Z,12.87
2024-04-10T20:33:32.736Z,13.90
2024-04-10T20:36:00.254Z,14.33
2024-04-10T20:38:27.840Z,6.03
2024-04-10T20:41:06.535Z,4.80
2024-04-10T20:43:34.302Z,8.90
2024-04-10T20:46:02.764Z,12.23
2024-04-10T20:48:33.730Z,13.63
2024-04-10T20:51:13.771Z,11.53
2024-04-10T20:53:46.069Z,15.90
2024-04-10T20:56:16.921Z,11.07
2024-04-10T20:58:44.051Z,12.63
2024-04-10T21:01:14.406Z,11.80
2024-04-10T21:03:43.743Z,15.70
2024-04-10T21:06:13.265Z,10.10
2024-04-10T21:09:03.578Z,9.30
2024-04-10T21:11:51.328Z,10.97
2024-04-10T21:14:36.962Z,7.63
2024-04-10T21:17:22.563Z,8.33
2024-04-10T21:20:08.073Z,6.93
2024-04-10T21:22:54.055Z,8.33
2024-04-10T21:25:48.797Z,5.97
2024-04-10T21:28:35.083Z,6.70
2024-04-10T21:31:27.734Z,10.03
2024-04-10T21:34:14.178Z,7.20
2024-04-10T21:36:59.821Z,5.70
2024-04-10T21:39:45.937Z,7.50
2024-04-10T21:42:31.776Z,4.60
2024-04-10T21:45:17.967Z,4.47
2024-04-10T21:48:03.906Z,12.57
2024-04-10T21:50:49.818Z,6.43
2024-04-10T21:53:35.662Z,8.50
2024-04-10T21:56:25.848Z,5.40
2024-04-10T21:59:12.157Z,6.73
2024-04-10T22:04:47.312Z,10.37
2024-04-10T22:07:34.916Z,8.13
2024-04-10T22:10:02.040Z,9.53
2024-04-10T22:12:29.731Z,11.00
2024-04-10T22:14:56.843Z,11.20
2024-04-10T22:17:42.596Z,5.97
2024-04-10T22:20:30.029Z,6.87
2024-04-10T22:23:15.414Z,7.23
2024-04-10T22:25:52.660Z,8.10
2024-04-10T22:28:23.924Z,11.10
2024-04-10T22:30:51.158Z,7.27
2024-04-10T22:33:20.047Z,9.27
2024-04-10T22:35:57.322Z,7.17
2024-04-10T22:38:24.339Z,5.47
2024-04-10T22:40:51.359Z,8.60
2024-04-10T22:43:18.258Z,8.40
2024-04-10T22:45:45.232Z,6.00
2024-04-10T22:48:13.104Z,9.40
2024-04-10T22:50:40.297Z,5.33
2024-04-10T22:53:07.965Z,9.47
2024-04-10T22:55:34.895Z,5.63
2024-04-10T22:58:03.349Z,6.07
2024-04-10T23:00:30.502Z,8.83
2024-04-10T23:02:57.715Z,8.67
2024-04-10T23:05:40.928Z,4.43
2024-04-10T23:08:29.062Z,8.17
2024-04-10T23:10:58.416Z,4.73
2024-04-10T23:13:25.272Z,3.50
2024-04-10T23:15:52.173Z,5.60
2024-04-10T23:18:26.036Z,5.07
2024-04-10T23:21:04.899Z,3.80
2024-04-10T23:23:32.124Z,10.50
2024-04-10T23:25:59.048Z,6.30
2024-04-10T23:28:25.906Z,7.93
2024-04-10T23:30:52.751Z,6.60
2024-04-10T23:33:20.028Z,4.17
2024-04-10T23:35:47.304Z,5.60
2024-04-10T23:38:14.523Z,5.40
2024-04-10T23:40:43.194Z,7.73
2024-04-10T23:43:11.349Z,5.57
2024-04-10T23:45:38.908Z,5.60
2024-04-10T23:48:06.159Z,4.57
2024-04-10T23:50:33.308Z,3.40
2024-04-10T23:53:01.011Z,6.70
2024-04-10T23:55:27.903Z,7.80
2024-04-10T23:58:01.175Z,3.90
